Time;durP1;ratioP1;P1;durP2;ratioP2;P2;SDS_P1;SDS_P2;PMS_P1;PMS_P2;Temp;Humidity;BMP_temperature;BMP_pressure;BME280_temperature;BME280_humidity;BME280_pressure;Samples;Min_cycle;Max_cycle;Signal;HPM_P1;HPM_P2
2021/12/25 00:01:52;;;;;;;1.77;1.70;;;3.50;99.90;;;;;;5092962;28;20333;-67
2021/12/25 00:04:19;;;;;;;2.08;2.08;;;3.50;99.90;;;;;;5093004;28;20238;-66
2021/12/25 00:06:46;;;;;;;2.00;1.90;;;3.50;99.90;;;;;;5093089;28;20200;-66
2021/12/25 00:09:13;;;;;;;2.10;2.00;;;3.50;99.90;;;;;;5093118;28;20223;-66
2021/12/25 00:11:41;;;;;;;1.75;1.75;;;3.50;99.90;;;;;;5096736;28;20251;-66
2021/12/25 00:14:12;;;;;;;1.80;1.80;;;3.50;99.90;;;;;;5096733;28;20286;-66
2021/12/25 00:16:40;;;;;;;1.83;1.73;;;3.50;99.90;;;;;;5096450;28;20623;-66
2021/12/25 00:19:07;;;;;;;1.60;1.60;;;3.50;99.90;;;;;;5096301;28;20202;-66
2021/12/25 00:21:34;;;;;;;1.60;1.50;;;3.50;99.90;;;;;;5096215;28;20832;-66
2021/12/25 00:24:01;;;;;;;1.85;1.80;;;3.50;99.90;;;;;;5096598;28;20288;-66
2021/12/25 00:26:43;;;;;;;1.70;1.70;;;3.50;99.90;;;;;;5096499;28;20252;-66
2021/12/25 07:05:18;;;;;;;2.40;2.30;;;3.00;99.90;;;;;;6092129;22;20174;-67
2021/12/25 07:07:46;;;;;;;2.33;2.22;;;3.00;99.90;;;;;;5073280;28;20298;-68
2021/12/25 07:10:13;;;;;;;2.13;2.03;;;3.10;99.90;;;;;;5073439;28;20243;-69
2021/12/25 07:12:44;;;;;;;1.95;1.85;;;3.20;99.90;;;;;;5073149;28;20745;-69
2021/12/25 07:15:11;;;;;;;1.80;1.80;;;3.20;99.90;;;;;;5073272;28;20224;-69
2021/12/25 07:17:38;;;;;;;3.13;2.92;;;3.30;99.90;;;;;;5073920;28;20291;-68
2021/12/25 07:20:06;;;;;;;2.67;2.58;;;3.30;99.90;;;;;;5072813;28;20286;-68
2021/12/25 07:22:34;;;;;;;2.85;2.65;;;3.20;99.90;;;;;;5073374;28;20287;-67
2021/12/25 07:25:01;;;;;;;2.50;2.40;;;3.20;99.90;;;;;;5072943;28;20306;-67
2021/12/25 07:27:28;;;;;;;2.40;2.30;;;3.20;99.90;;;;;;5073447;28;20291;-67
2021/12/25 07:29:55;;;;;;;2.50;2.30;;;3.30;99.90;;;;;;5073226;28;20310;-67
2021/12/25 07:32:22;;;;;;;2.70;2.60;;;3.30;99.90;;;;;;5076059;28;20291;-68
2021/12/25 07:34:50;;;;;;;2.60;2.50;;;3.30;99.90;;;;;;5077422;28;20235;-68
2021/12/25 07:37:18;;;;;;;1.90;1.80;;;3.30;99.90;;;;;;5077295;28;20204;-68
2021/12/25 07:39:47;;;;;;;1.95;1.85;;;3.40;99.90;;;;;;5076927;28;20206;-67
2021/12/25 07:42:15;;;;;;;1.70;1.70;;;3.40;99.90;;;;;;5077205;28;20218;-68
2021/12/25 07:44:42;;;;;;;2.00;1.90;;;3.50;99.90;;;;;;5076841;28;20654;-67
2021/12/25 07:47:11;;;;;;;1.27;1.27;;;3.50;99.90;;;;;;5072589;28;20574;-67
2021/12/25 07:49:38;;;;;;;1.80;1.80;;;3.50;99.90;;;;;;5072747;28;20311;-67
2021/12/25 07:52:06;;;;;;;1.48;1.48;;;3.60;99.90;;;;;;5072827;28;20268;-67
2021/12/25 07:54:33;;;;;;;1.90;1.80;;;3.60;99.90;;;;;;5072643;28;20737;-67
2021/12/25 07:57:01;;;;;;;1.45;1.45;;;3.70;99.90;;;;;;5072924;28;20291;-67
2021/12/25 07:59:28;;;;;;;1.60;1.50;;;3.70;99.90;;;;;;5072997;28;20290;-68
2021/12/25 08:01:56;;;;;;;2.80;2.60;;;3.70;99.90;;;;;;5073138;28;20287;-68
2021/12/25 08:04:23;;;;;;;2.20;2.10;;;3.80;99.90;;;;;;5073135;28;20207;-68
2021/12/25 08:06:50;;;;;;;2.33;2.22;;;3.70;99.90;;;;;;5072884;28;20295;-68
2021/12/25 08:09:27;;;;;;;4.30;3.35;;;3.70;99.90;;;;;;5072689;28;20220;-68
2021/12/25 08:11:54;;;;;;;3.22;3.00;;;3.80;99.90;;;;;;5072997;28;20211;-68
2021/12/25 08:14:25;;;;;;;3.42;3.13;;;3.80;99.90;;;;;;5073063;28;20299;-68
2021/12/25 08:16:53;;;;;;;4.20;3.72;;;3.80;99.90;;;;;;5072957;28;20219;-68
2021/12/25 08:19:20;;;;;;;4.20;3.58;;;3.80;99.90;;;;;;5072799;28;20200;-68
2021/12/25 08:21:47;;;;;;;4.00;3.70;;;3.80;99.90;;;;;;5072767;28;20286;-67
2021/12/25 08:24:14;;;;;;;4.15;3.83;;;3.80;99.90;;;;;;5072868;28;20287;-68
2021/12/25 08:26:42;;;;;;;7.10;5.78;;;3.90;99.90;;;;;;5072670;28;20226;-68
2021/12/25 08:29:08;;;;;;;8.70;5.93;;;3.90;99.90;;;;;;5072422;28;20220;-67
2021/12/25 08:31:37;;;;;;;6.07;5.20;;;3.80;99.90;;;;;;5073577;28;20208;-67
2021/12/25 08:34:04;;;;;;;6.13;5.43;;;3.80;99.90;;;;;;5075999;28;20211;-67
2021/12/25 08:36:31;;;;;;;6.43;5.53;;;3.80;99.90;;;;;;5076173;28;20327;-68
2021/12/25 08:38:58;;;;;;;6.43;5.38;;;3.80;99.90;;;;;;5076139;28;20287;-68
2021/12/25 08:41:28;;;;;;;5.90;5.18;;;3.90;99.90;;;;;;5075708;28;20249;-68
2021/12/25 08:43:59;;;;;;;5.85;5.05;;;3.90;99.90;;;;;;5076543;28;20210;-68
2021/12/25 08:46:43;;;;;;;6.25;5.15;;;3.90;99.90;;;;;;5076398;28;20220;-68
2021/12/25 08:49:15;;;;;;;5.45;4.28;;;4.00;99.90;;;;;;5077812;28;20257;-69
2021/12/25 08:51:44;;;;;;;6.15;4.90;;;4.00;99.90;;;;;;5077404;28;20188;-69
2021/12/25 08:54:11;;;;;;;5.88;4.63;;;4.00;99.90;;;;;;5076794;28;20200;-69
2021/12/25 08:56:39;;;;;;;4.60;4.20;;;4.00;99.90;;;;;;5076034;28;20231;-68
2021/12/25 08:59:06;;;;;;;4.88;4.38;;;4.10;99.90;;;;;;5076050;28;20290;-69
2021/12/25 09:01:33;;;;;;;4.82;4.10;;;4.10;99.90;;;;;;5076004;28;20291;-69
2021/12/25 09:04:00;;;;;;;4.65;4.25;;;4.10;99.90;;;;;;5075931;28;20231;-70
2021/12/25 09:06:29;;;;;;;5.80;4.63;;;4.20;99.90;;;;;;5075546;28;20232;-68
2021/12/25 09:08:56;;;;;;;4.50;4.10;;;4.20;99.90;;;;;;5076162;28;20308;-68
2021/12/25 09:11:24;;;;;;;5.03;4.53;;;4.20;99.90;;;;;;5075384;28;20290;-68
2021/12/25 09:13:51;;;;;;;4.85;4.45;;;4.20;99.90;;;;;;5075598;28;20199;-68
2021/12/25 09:16:18;;;;;;;4.80;4.03;;;4.30;99.90;;;;;;5075148;28;20781;-67
2021/12/25 09:18:46;;;;;;;5.10;4.32;;;4.30;99.90;;;;;;5075453;28;20290;-68
2021/12/25 09:21:14;;;;;;;4.63;4.22;;;4.30;99.90;;;;;;5075473;28;20234;-67
2021/12/25 09:23:42;;;;;;;4.60;4.20;;;4.30;99.90;;;;;;5075062;28;20287;-67
2021/12/25 09:26:10;;;;;;;4.75;4.28;;;4.30;99.90;;;;;;5075350;28;20302;-68
2021/12/25 09:28:37;;;;;;;4.90;4.40;;;4.30;99.90;;;;;;5075406;28;20208;-68
2021/12/25 09:31:05;;;;;;;4.70;4.30;;;4.30;99.90;;;;;;5075183;28;20311;-68
2021/12/25 09:33:33;;;;;;;4.55;4.25;;;4.40;99.90;;;;;;5075434;28;20291;-67
2021/12/25 09:36:02;;;;;;;5.07;4.57;;;4.40;99.90;;;;;;5075081;28;20307;-67
2021/12/25 09:38:29;;;;;;;4.25;3.95;;;4.50;99.90;;;;;;5075203;28;20204;-66
2021/12/25 09:40:58;;;;;;;4.78;4.38;;;4.50;99.90;;;;;;5075198;28;20279;-67
2021/12/25 09:43:26;;;;;;;4.32;3.92;;;4.50;99.90;;;;;;5074593;28;20651;-67
2021/12/25 09:45:53;;;;;;;4.15;3.85;;;4.50;99.90;;;;;;5075112;28;20307;-67
2021/12/25 09:48:20;;;;;;;4.55;4.15;;;4.60;99.90;;;;;;5075193;28;20359;-67
2021/12/25 09:50:47;;;;;;;4.82;4.35;;;4.60;99.90;;;;;;5074795;28;20216;-67
2021/12/25 09:53:17;;;;;;;6.60;5.38;;;4.60;99.90;;;;;;5074811;28;20294;-66
2021/12/25 09:55:44;;;;;;;5.63;4.85;;;4.60;99.90;;;;;;5074613;28;20749;-67
2021/12/25 09:58:14;;;;;;;7.28;5.95;;;4.60;99.90;;;;;;5074783;28;20287;-68
2021/12/25 10:00:45;;;;;;;6.35;5.32;;;4.60;99.90;;;;;;5074993;28;20196;-67
2021/12/25 10:03:12;;;;;;;7.85;5.65;;;4.70;99.90;;;;;;5074947;28;20275;-66
2021/12/25 10:05:41;;;;;;;5.47;4.90;;;4.70;99.90;;;;;;5074953;28;20315;-67
2021/12/25 10:08:12;;;;;;;5.30;4.78;;;4.70;99.90;;;;;;5075178;28;20583;-68
2021/12/25 10:10:42;;;;;;;5.65;5.15;;;4.80;99.90;;;;;;5076078;28;20679;-67
2021/12/25 10:13:27;;;;;;;5.32;4.82;;;4.90;99.90;;;;;;5075355;28;20300;-69
2021/12/25 10:15:57;;;;;;;5.82;5.20;;;4.90;99.90;;;;;;5077460;28;20234;-68
2021/12/25 10:18:33;;;;;;;5.90;5.25;;;5.00;99.90;;;;;;5076913;28;20184;-68
2021/12/25 10:21:20;;;;;;;6.80;5.38;;;5.10;99.90;;;;;;5075322;28;20184;-67
2021/12/25 10:24:04;;;;;;;5.35;4.80;;;5.10;99.90;;;;;;5075479;28;20278;-68
2021/12/25 10:26:32;;;;;;;6.68;5.57;;;5.10;99.90;;;;;;5075603;28;20267;-66
2021/12/25 10:29:00;;;;;;;5.70;5.13;;;5.20;99.90;;;;;;5075901;28;20246;-68
2021/12/25 10:31:32;;;;;;;6.40;5.38;;;5.20;99.90;;;;;;5124318;22;20246;-69
2021/12/25 10:33:59;;;;;;;11.68;7.95;;;5.20;99.90;;;;;;5095151;28;20195;-67
2021/12/25 10:36:28;;;;;;;10.88;8.40;;;5.20;99.90;;;;;;5094045;28;20318;-67
2021/12/25 10:39:00;;;;;;;13.30;8.60;;;5.20;99.90;;;;;;5094653;28;20290;-67
2021/12/25 10:41:27;;;;;;;12.40;8.77;;;5.20;99.90;;;;;;5094355;28;20223;-67
2021/12/25 10:44:13;;;;;;;12.30;8.80;;;5.20;99.90;;;;;;5094372;28;20297;-67
2021/12/25 10:46:56;;;;;;;13.77;9.13;;;5.20;99.90;;;;;;5094160;28;20305;-67
2021/12/25 10:49:24;;;;;;;10.95;8.52;;;5.20;99.90;;;;;;5091986;28;20745;-67
2021/12/25 10:51:52;;;;;;;13.88;10.00;;;5.20;99.90;;;;;;5094148;28;20297;-68
2021/12/25 10:54:19;;;;;;;14.75;9.82;;;5.10;99.90;;;;;;5093385;28;20195;-67
2021/12/25 10:56:48;;;;;;;12.32;9.27;;;5.00;99.90;;;;;;5093703;28;20710;-67
2021/12/25 10:59:19;;;;;;;10.77;8.63;;;5.00;99.90;;;;;;5094065;28;20195;-68
2021/12/25 11:01:49;;;;;;;14.63;8.88;;;5.10;99.90;;;;;;5093993;28;20184;-67
2021/12/25 11:04:27;;;;;;;9.15;7.13;;;5.10;99.90;;;;;;5093877;28;20278;-67
2021/12/25 11:06:54;;;;;;;9.88;7.13;;;5.20;99.90;;;;;;5093920;28;20322;-67
2021/12/25 11:09:21;;;;;;;6.85;5.72;;;5.30;99.90;;;;;;5093748;28;20755;-67
2021/12/25 11:12:15;;;;;;;6.75;5.72;;;5.40;99.90;;;;;;5094517;28;20286;-67
2021/12/25 11:14:44;;;;;;;6.60;5.82;;;5.50;99.90;;;;;;5093893;28;20184;-68
2021/12/25 15:27:22;;;;;;;1.20;1.20;;;6.30;99.90;;;;;;5388815;22;20223;-71
2021/12/25 15:29:52;;;;;;;1.25;1.25;;;6.20;99.90;;;;;;5093824;28;20199;-71
2021/12/25 15:32:20;;;;;;;0.88;0.88;;;6.20;99.90;;;;;;5093811;28;20270;-71
2021/12/25 15:34:52;;;;;;;1.10;1.10;;;6.20;99.90;;;;;;5094064;28;20286;-71
2021/12/25 15:37:22;;;;;;;1.17;1.17;;;6.20;99.90;;;;;;5093737;28;20251;-70
2021/12/25 15:39:50;;;;;;;1.05;1.05;;;6.10;99.90;;;;;;5093714;28;20206;-70
2021/12/25 15:42:20;;;;;;;1.20;1.20;;;6.10;99.90;;;;;;5121654;22;20651;-75
2021/12/25 15:44:48;;;;;;;1.40;1.38;;;6.00;99.90;;;;;;5098005;28;20203;-74
2021/12/25 15:47:15;;;;;;;1.08;1.08;;;6.00;99.90;;;;;;5097393;28;20780;-75
2021/12/25 15:49:42;;;;;;;1.10;1.10;;;6.00;99.90;;;;;;5097546;28;20270;-75
2021/12/25 15:52:09;;;;;;;1.00;1.00;;;6.00;99.90;;;;;;5097634;28;20295;-74
2021/12/25 15:54:38;;;;;;;1.00;1.00;;;6.00;99.90;;;;;;5097641;28;20183;-75
2021/12/25 15:57:07;;;;;;;0.90;0.90;;;5.90;99.90;;;;;;5097819;28;20203;-74
2021/12/25 15:59:38;;;;;;;0.80;0.80;;;5.90;99.90;;;;;;5097466;28;20310;-75
2021/12/25 16:02:06;;;;;;;1.20;1.20;;;5.90;99.90;;;;;;5097478;28;20251;-74
2021/12/25 16:04:33;;;;;;;1.10;1.10;;;5.90;99.90;;;;;;5097526;28;20286;-74
2021/12/25 16:07:00;;;;;;;0.90;0.90;;;5.80;99.90;;;;;;5097149;28;20234;-75
2021/12/25 16:09:28;;;;;;;1.23;1.20;;;5.80;99.90;;;;;;5097117;28;20290;-75
2021/12/25 16:11:55;;;;;;;0.93;0.93;;;5.80;99.90;;;;;;5097178;28;20314;-74
2021/12/25 16:14:23;;;;;;;0.90;0.90;;;5.80;99.90;;;;;;5097525;28;20298;-75
2021/12/25 16:16:52;;;;;;;0.90;0.90;;;5.70;99.90;;;;;;5098400;28;20263;-75
2021/12/25 16:19:20;;;;;;;1.08;1.08;;;5.70;99.90;;;;;;5097788;28;20203;-74
2021/12/25 16:21:48;;;;;;;0.90;0.90;;;5.70;99.90;;;;;;5097087;28;20310;-74
2021/12/25 16:24:15;;;;;;;0.85;0.85;;;5.80;99.90;;;;;;5096871;28;20203;-75
2021/12/25 16:26:42;;;;;;;1.08;1.08;;;5.70;99.90;;;;;;5097022;28;20200;-73
2021/12/25 16:29:09;;;;;;;0.98;0.98;;;5.70;99.90;;;;;;5097063;28;20231;-74
2021/12/25 16:31:37;;;;;;;1.00;1.00;;;5.70;99.90;;;;;;5096973;28;20239;-75
2021/12/25 16:34:09;;;;;;;0.95;0.95;;;5.70;99.90;;;;;;5096701;28;20215;-74
2021/12/25 16:36:37;;;;;;;0.90;0.90;;;5.70;99.90;;;;;;5096988;28;20188;-72
2021/12/25 16:39:06;;;;;;;1.50;1.50;;;5.70;99.90;;;;;;5097148;28;20293;-73
2021/12/25 16:41:34;;;;;;;1.50;1.50;;;5.70;99.90;;;;;;5097282;28;20231;-73
2021/12/25 16:44:01;;;;;;;1.38;1.38;;;5.70;99.90;;;;;;5096956;28;20627;-73
2021/12/25 16:46:28;;;;;;;1.48;1.40;;;5.70;99.90;;;;;;5097022;28;20298;-74
2021/12/25 16:48:55;;;;;;;1.50;1.50;;;5.70;99.90;;;;;;5096714;28;20187;-73
2021/12/25 16:51:27;;;;;;;1.58;1.58;;;5.70;99.90;;;;;;5096180;28;20309;-73
2021/12/25 16:53:54;;;;;;;1.40;1.40;;;5.60;99.90;;;;;;5095059;28;20209;-73
2021/12/25 16:56:21;;;;;;;1.35;1.35;;;5.60;99.90;;;;;;5096274;28;20290;-74
2021/12/25 16:58:50;;;;;;;1.10;1.10;;;5.60;99.90;;;;;;5096017;28;20692;-73
2021/12/25 17:01:18;;;;;;;1.23;1.23;;;5.60;99.90;;;;;;5096348;28;20307;-71
2021/12/25 17:03:45;;;;;;;1.20;1.20;;;5.60;99.90;;;;;;5096386;28;20281;-73
2021/12/25 17:06:14;;;;;;;1.20;1.20;;;5.50;99.90;;;;;;5096729;28;20230;-74
2021/12/25 17:08:43;;;;;;;1.45;1.38;;;5.50;99.90;;;;;;5100434;28;20670;-73
2021/12/25 17:11:10;;;;;;;1.00;1.00;;;5.50;99.90;;;;;;5102702;28;20280;-73
2021/12/25 17:13:37;;;;;;;1.23;1.23;;;5.50;99.90;;;;;;5097660;28;20274;-74
2021/12/25 17:16:06;;;;;;;1.63;1.52;;;5.50;99.90;;;;;;5095878;28;20199;-73
2021/12/25 17:18:33;;;;;;;1.33;1.33;;;5.50;99.90;;;;;;5095937;28;20274;-72
2021/12/25 17:20:59;;;;;;;1.45;1.45;;;5.50;99.90;;;;;;5095387;28;20752;-73
2021/12/25 17:23:28;;;;;;;1.63;1.63;;;5.50;99.90;;;;;;5095435;28;20751;-72
2021/12/25 17:25:57;;;;;;;1.88;1.80;;;5.50;99.90;;;;;;5095739;28;20230;-72
2021/12/25 17:28:24;;;;;;;2.20;2.10;;;5.50;99.90;;;;;;5095972;28;20202;-72
2021/12/25 17:30:54;;;;;;;2.75;2.60;;;5.50;99.90;;;;;;5095332;28;20313;-72
2021/12/25 17:33:23;;;;;;;3.28;3.08;;;5.50;99.90;;;;;;5095622;28;20226;-72
2021/12/25 17:35:56;;;;;;;2.90;2.67;;;5.50;99.90;;;;;;5095252;28;20693;-72
2021/12/25 17:38:24;;;;;;;3.05;2.83;;;5.50;99.90;;;;;;5095665;28;20278;-72
2021/12/25 17:40:51;;;;;;;2.53;2.33;;;5.50;99.90;;;;;;5094948;28;20705;-72
2021/12/25 17:43:19;;;;;;;2.42;2.33;;;5.50;99.90;;;;;;5095400;28;20180;-72
2021/12/25 17:45:46;;;;;;;2.20;2.10;;;5.50;99.90;;;;;;5095059;28;20206;-72
2021/12/25 17:48:13;;;;;;;2.53;2.35;;;5.50;99.90;;;;;;5094949;28;20629;-72
2021/12/25 17:50:40;;;;;;;2.35;2.25;;;5.50;99.90;;;;;;5095064;28;20221;-72
2021/12/25 17:53:08;;;;;;;1.50;1.50;;;5.40;99.90;;;;;;5095122;28;20227;-72
2021/12/25 17:55:38;;;;;;;2.30;2.15;;;5.40;99.90;;;;;;5094845;28;20290;-72
2021/12/25 17:58:05;;;;;;;2.00;1.90;;;5.40;99.90;;;;;;5094819;28;20202;-73
2021/12/25 18:00:36;;;;;;;2.08;1.98;;;5.40;99.90;;;;;;5095004;28;20200;-73
2021/12/25 18:03:04;;;;;;;2.08;1.88;;;5.40;99.90;;;;;;5095784;28;20201;-74
2021/12/25 18:05:31;;;;;;;2.03;1.92;;;5.40;99.90;;;;;;5095431;28;20215;-73
2021/12/25 18:07:58;;;;;;;2.20;2.00;;;5.40;99.90;;;;;;5094885;28;20670;-73
2021/12/25 18:10:25;;;;;;;2.13;2.05;;;5.40;99.90;;;;;;5094906;28;20286;-73
2021/12/25 18:12:52;;;;;;;1.92;1.88;;;5.40;99.90;;;;;;5094631;28;20226;-73
2021/12/25 18:15:22;;;;;;;2.30;2.20;;;5.40;99.90;;;;;;5095286;28;20287;-73
2021/12/25 18:17:51;;;;;;;2.17;2.08;;;5.40;99.90;;;;;;5094704;28;20293;-73
2021/12/25 18:20:21;;;;;;;1.80;1.80;;;5.40;99.90;;;;;;5094664;28;20562;-73
2021/12/25 18:22:48;;;;;;;1.92;1.83;;;5.40;99.90;;;;;;5094537;28;20306;-73
2021/12/25 18:25:16;;;;;;;1.42;1.42;;;5.40;99.90;;;;;;5094352;28;20294;-73
2021/12/25 18:27:43;;;;;;;1.77;1.63;;;5.40;99.90;;;;;;5094588;28;20289;-73
2021/12/25 18:30:14;;;;;;;2.00;1.90;;;5.40;99.90;;;;;;5094626;28;20260;-73
2021/12/25 18:32:41;;;;;;;2.00;1.90;;;5.40;99.90;;;;;;5094481;28;20223;-73
2021/12/25 18:35:11;;;;;;;2.25;2.15;;;5.40;99.90;;;;;;5094252;28;20740;-73
2021/12/25 18:37:38;;;;;;;1.90;1.90;;;5.40;99.90;;;;;;5094288;28;20662;-73
2021/12/25 18:40:07;;;;;;;1.77;1.77;;;5.30;99.90;;;;;;5094471;28;20626;-73
2021/12/25 18:42:34;;;;;;;1.80;1.70;;;5.30;99.90;;;;;;5094053;28;20309;-73
2021/12/25 18:45:02;;;;;;;2.05;1.95;;;5.30;99.90;;;;;;5094084;28;20665;-73
2021/12/25 18:47:29;;;;;;;2.13;2.03;;;5.20;99.90;;;;;;5094260;28;20195;-73
2021/12/25 18:49:56;;;;;;;2.33;2.22;;;5.30;99.90;;;;;;5094039;28;20302;-73
2021/12/25 18:52:25;;;;;;;1.60;1.60;;;5.20;99.90;;;;;;5093832;28;20773;-73
2021/12/25 18:54:51;;;;;;;1.52;1.52;;;5.20;99.90;;;;;;5094123;28;20289;-73
2021/12/25 18:57:18;;;;;;;1.80;1.80;;;5.30;99.90;;;;;;5094137;28;20238;-73
2021/12/25 18:59:45;;;;;;;1.65;1.65;;;5.20;99.90;;;;;;5094158;28;20290;-73
2021/12/25 19:02:13;;;;;;;1.20;1.20;;;5.20;99.90;;;;;;5094005;28;20221;-72
2021/12/25 19:04:41;;;;;;;1.48;1.40;;;5.30;99.90;;;;;;5094452;28;20302;-73
2021/12/25 19:07:09;;;;;;;1.40;1.40;;;5.20;99.90;;;;;;5094168;28;20292;-73
2021/12/25 19:09:38;;;;;;;1.60;1.60;;;5.20;99.90;;;;;;5093972;28;20199;-73
2021/12/25 19:12:06;;;;;;;1.55;1.55;;;5.20;99.90;;;;;;5093946;28;20314;-73
2021/12/25 19:14:32;;;;;;;1.40;1.40;;;5.20;99.90;;;;;;5093798;28;20235;-74
2021/12/25 19:17:00;;;;;;;1.58;1.58;;;5.20;99.90;;;;;;5093209;28;20286;-73
2021/12/25 19:19:26;;;;;;;1.20;1.20;;;5.20;99.90;;;;;;5094255;28;20207;-73
2021/12/25 19:21:53;;;;;;;1.13;1.13;;;5.20;99.90;;;;;;5094006;28;20306;-73
2021/12/25 19:24:21;;;;;;;1.15;1.15;;;5.10;99.90;;;;;;5093801;28;20633;-74
2021/12/25 19:26:49;;;;;;;1.30;1.30;;;5.10;99.90;;;;;;5094656;28;20207;-73
2021/12/25 19:29:17;;;;;;;1.42;1.42;;;5.10;99.90;;;;;;5093532;28;20642;-73
2021/12/25 19:31:44;;;;;;;1.30;1.30;;;5.10;99.90;;;;;;5093879;28;20310;-73
2021/12/25 19:34:12;;;;;;;1.30;1.30;;;5.20;99.90;;;;;;5093742;28;20286;-73
2021/12/25 19:36:39;;;;;;;1.23;1.23;;;5.10;99.90;;;;;;5093757;28;20624;-74
2021/12/25 19:39:07;;;;;;;1.30;1.30;;;5.10;99.90;;;;;;5093900;28;20285;-74
2021/12/25 19:41:34;;;;;;;0.88;0.88;;;5.20;99.90;;;;;;5093720;28;20230;-74
2021/12/25 19:44:04;;;;;;;1.33;1.33;;;5.10;99.90;;;;;;5094557;28;20757;-73
2021/12/25 19:46:32;;;;;;;1.17;1.17;;;5.20;99.90;;;;;;5094329;28;20191;-73
2021/12/25 19:49:00;;;;;;;1.05;1.05;;;5.10;99.90;;;;;;5094329;28;20195;-73
2021/12/25 19:51:29;;;;;;;1.20;1.20;;;5.20;99.90;;;;;;5094335;28;20254;-73
2021/12/25 19:53:59;;;;;;;1.00;1.00;;;5.10;99.90;;;;;;5094772;28;20238;-73
2021/12/25 19:56:26;;;;;;;1.00;1.00;;;5.20;99.90;;;;;;5094977;28;20199;-73
2021/12/25 19:58:54;;;;;;;0.90;0.90;;;5.10;99.90;;;;;;5094355;28;20304;-73
2021/12/25 20:01:22;;;;;;;1.10;1.10;;;5.10;99.90;;;;;;5093707;28;20245;-73
2021/12/25 20:03:51;;;;;;;0.95;0.95;;;5.10;99.90;;;;;;5093393;28;20681;-73
2021/12/25 20:06:19;;;;;;;0.95;0.95;;;5.10;99.90;;;;;;5093755;28;20290;-73
2021/12/25 20:08:49;;;;;;;1.02;1.02;;;5.10;99.90;;;;;;5093594;28;20753;-72
2021/12/25 20:11:18;;;;;;;1.10;1.10;;;5.10;99.90;;;;;;5094355;28;20251;-73
2021/12/25 20:13:45;;;;;;;0.95;0.95;;;5.10;99.90;;;;;;5095254;28;20278;-72
2021/12/25 20:16:15;;;;;;;1.08;1.08;;;5.10;99.90;;;;;;5095321;28;20737;-72
2021/12/25 20:18:44;;;;;;;0.95;0.95;;;5.10;99.90;;;;;;5094789;28;20294;-72
2021/12/25 20:21:13;;;;;;;1.00;1.00;;;5.10;99.90;;;;;;5094521;28;20235;-72
2021/12/25 20:23:40;;;;;;;0.90;0.90;;;5.10;99.90;;;;;;5094759;28;20290;-72
2021/12/25 20:26:07;;;;;;;1.00;1.00;;;5.10;99.90;;;;;;5093815;28;20267;-72
2021/12/25 20:28:37;;;;;;;1.30;1.25;;;5.10;99.90;;;;;;5096825;28;20694;-73
2021/12/25 20:31:05;;;;;;;0.90;0.90;;;5.10;99.90;;;;;;5097008;28;20222;-73
2021/12/25 20:33:32;;;;;;;0.90;0.90;;;5.10;99.90;;;;;;5096998;28;20306;-73
2021/12/25 20:36:01;;;;;;;1.08;1.08;;;5.10;99.90;;;;;;5096691;28;20295;-73
2021/12/25 20:38:28;;;;;;;0.98;0.98;;;5.10;99.90;;;;;;5096639;28;20234;-73
2021/12/25 20:40:56;;;;;;;0.80;0.80;;;5.10;99.90;;;;;;5096698;28;20336;-73
2021/12/25 20:43:30;;;;;;;0.80;0.80;;;5.20;99.90;;;;;;5096580;28;20190;-73
2021/12/25 20:45:56;;;;;;;0.80;0.80;;;5.10;99.90;;;;;;5096895;28;20191;-73
2021/12/25 20:48:25;;;;;;;1.02;1.02;;;5.10;99.90;;;;;;5096799;28;20252;-73
2021/12/25 20:50:55;;;;;;;1.00;1.00;;;5.10;99.90;;;;;;5096284;28;20637;-72
2021/12/25 20:53:23;;;;;;;1.13;1.13;;;5.10;99.90;;;;;;5096711;28;20310;-72
2021/12/25 20:55:50;;;;;;;1.50;1.50;;;5.10;99.90;;;;;;5096532;28;20199;-72
2021/12/25 20:58:17;;;;;;;1.48;1.40;;;5.10;99.90;;;;;;5096316;28;20299;-72
2021/12/25 21:00:45;;;;;;;1.38;1.38;;;5.10;99.90;;;;;;5096299;28;20253;-72
2021/12/25 21:03:12;;;;;;;1.33;1.33;;;5.10;99.90;;;;;;5099610;28;20617;-72
2021/12/25 21:05:39;;;;;;;1.30;1.30;;;5.10;99.90;;;;;;5096787;28;20199;-72
2021/12/25 21:08:07;;;;;;;1.20;1.20;;;5.10;99.90;;;;;;5096326;28;20278;-72
2021/12/25 21:10:37;;;;;;;1.27;1.27;;;5.10;99.90;;;;;;5096178;28;20290;-73
2021/12/25 21:13:05;;;;;;;1.20;1.20;;;5.10;99.90;;;;;;5096078;28;20227;-72
2021/12/25 21:15:34;;;;;;;1.70;1.60;;;5.00;99.90;;;;;;5096403;28;20294;-70
2021/12/25 21:18:03;;;;;;;3.25;1.58;;;5.10;99.90;;;;;;5095855;28;20669;-72
2021/12/25 21:20:30;;;;;;;1.90;1.80;;;5.00;99.90;;;;;;5096106;28;20210;-73
2021/12/25 21:22:58;;;;;;;1.83;1.73;;;5.00;99.90;;;;;;5096487;28;20211;-73
2021/12/25 21:25:26;;;;;;;4.40;1.50;;;5.00;99.90;;;;;;5096059;28;20205;-73
2021/12/25 21:27:56;;;;;;;2.35;2.17;;;4.90;99.90;;;;;;5095780;28;20196;-73
2021/12/25 21:30:24;;;;;;;1.45;1.45;;;4.90;99.90;;;;;;5095942;28;20270;-73
2021/12/25 21:32:57;;;;;;;2.75;1.80;;;4.90;99.90;;;;;;5095750;28;20314;-73
2021/12/25 21:35:25;;;;;;;1.52;1.52;;;4.90;99.90;;;;;;5095848;28;20547;-73
2021/12/25 21:37:53;;;;;;;1.60;1.50;;;4.90;99.90;;;;;;5095226;28;20266;-73
2021/12/25 21:40:21;;;;;;;1.42;1.42;;;4.90;99.90;;;;;;5095314;28;20294;-73
2021/12/25 21:42:49;;;;;;;1.30;1.30;;;4.90;99.90;;;;;;5095619;28;20319;-73
2021/12/25 21:45:19;;;;;;;1.50;1.40;;;4.90;99.90;;;;;;5095588;28;20184;-73
2021/12/25 21:47:47;;;;;;;1.38;1.27;;;4.90;99.90;;;;;;5095301;28;20241;-73
2021/12/25 21:50:16;;;;;;;1.38;1.38;;;5.00;99.90;;;;;;5095572;28;20199;-73
2021/12/25 21:52:43;;;;;;;1.50;1.40;;;5.00;99.90;;;;;;5095318;28;20314;-73
2021/12/25 21:55:12;;;;;;;2.10;2.00;;;4.90;99.90;;;;;;5095320;28;20388;-73
2021/12/25 21:57:40;;;;;;;1.52;1.50;;;4.90;99.90;;;;;;5095167;28;20678;-73
2021/12/25 22:00:10;;;;;;;2.28;1.73;;;4.90;99.90;;;;;;5094989;28;20290;-74
2021/12/25 22:02:38;;;;;;;1.65;1.55;;;4.90;99.90;;;;;;5094833;28;20650;-74
2021/12/25 22:05:06;;;;;;;1.98;1.88;;;4.90;99.90;;;;;;5094827;28;20290;-74
2021/12/25 22:07:38;;;;;;;1.40;1.40;;;4.90;99.90;;;;;;5095071;28;20282;-75
2021/12/25 22:10:08;;;;;;;1.52;1.50;;;4.90;99.90;;;;;;5095283;28;20215;-75
2021/12/25 22:12:37;;;;;;;1.65;1.55;;;4.90;99.90;;;;;;5095040;28;20280;-74
2021/12/25 22:15:05;;;;;;;1.63;1.55;;;4.90;99.90;;;;;;5095170;28;20210;-74
2021/12/25 22:17:33;;;;;;;1.38;1.38;;;4.90;99.90;;;;;;5095170;28;20206;-75
2021/12/25 22:20:01;;;;;;;1.83;1.73;;;4.90;99.90;;;;;;5094951;28;20207;-75
2021/12/25 22:22:28;;;;;;;1.65;1.55;;;4.90;99.90;;;;;;5094529;28;20661;-74
2021/12/25 22:24:56;;;;;;;1.35;1.35;;;4.90;99.90;;;;;;5094877;28;20285;-74
2021/12/25 22:27:23;;;;;;;1.38;1.38;;;4.90;99.90;;;;;;5094841;28;20286;-75
2021/12/25 22:29:51;;;;;;;1.25;1.25;;;4.90;99.90;;;;;;5094562;28;20282;-75
2021/12/25 22:32:18;;;;;;;1.23;1.23;;;4.90;99.90;;;;;;5094411;28;20223;-75
2021/12/25 22:34:45;;;;;;;1.60;1.50;;;4.80;99.90;;;;;;5094829;28;20203;-77
2021/12/25 22:37:14;;;;;;;1.20;1.20;;;4.80;99.90;;;;;;5094638;28;20199;-77
2021/12/25 22:39:41;;;;;;;1.50;1.45;;;4.80;99.90;;;;;;5094484;28;20761;-77
2021/12/25 22:42:08;;;;;;;1.50;1.50;;;4.80;99.90;;;;;;5094061;28;20318;-74
2021/12/25 22:44:36;;;;;;;1.45;1.45;;;4.80;99.90;;;;;;5094522;28;20282;-74
2021/12/25 22:47:04;;;;;;;1.15;1.15;;;4.80;99.90;;;;;;5094599;28;20207;-75
2021/12/25 22:49:31;;;;;;;1.17;1.17;;;4.80;99.90;;;;;;5093863;28;20692;-76
2021/12/25 22:51:57;;;;;;;1.60;1.58;;;4.80;99.90;;;;;;5093679;28;20225;-76
2021/12/25 22:54:26;;;;;;;1.20;1.20;;;4.80;99.90;;;;;;5094500;28;20210;-74
2021/12/25 22:56:53;;;;;;;1.30;1.30;;;4.80;99.90;;;;;;5094203;28;20294;-73
2021/12/25 22:59:20;;;;;;;1.40;1.40;;;4.80;99.90;;;;;;5094273;28;20286;-73
2021/12/25 23:01:48;;;;;;;1.33;1.33;;;4.70;99.90;;;;;;5093968;28;20653;-73
2021/12/25 23:04:15;;;;;;;1.40;1.40;;;4.80;99.90;;;;;;5093886;28;20192;-73
2021/12/25 23:06:42;;;;;;;1.20;1.20;;;4.80;99.90;;;;;;5093807;28;20267;-73
2021/12/25 23:09:10;;;;;;;1.10;1.10;;;4.80;99.90;;;;;;5094353;28;20293;-73
2021/12/25 23:11:39;;;;;;;1.20;1.10;;;4.70;99.90;;;;;;5094027;28;20356;-73
2021/12/25 23:14:10;;;;;;;1.20;1.20;;;4.70;99.90;;;;;;5094031;28;20222;-73
2021/12/25 23:16:37;;;;;;;1.10;1.10;;;4.70;99.90;;;;;;5094104;28;20183;-73
2021/12/25 23:19:05;;;;;;;1.17;1.17;;;4.80;99.90;;;;;;5093876;28;20745;-74
2021/12/25 23:21:34;;;;;;;1.13;1.13;;;4.80;99.90;;;;;;5093850;28;20227;-74
2021/12/25 23:24:01;;;;;;;1.02;1.02;;;4.80;99.90;;;;;;5093993;28;20290;-73
2021/12/25 23:26:28;;;;;;;1.08;1.08;;;4.80;99.90;;;;;;5094698;28;20222;-72
2021/12/25 23:28:58;;;;;;;1.17;1.10;;;4.80;99.90;;;;;;5095116;28;20260;-73
2021/12/25 23:31:25;;;;;;;1.08;1.08;;;4.80;99.90;;;;;;5094696;28;20301;-73
2021/12/25 23:33:53;;;;;;;0.93;0.93;;;4.80;99.90;;;;;;5093788;28;20405;-73
2021/12/25 23:36:22;;;;;;;1.10;1.10;;;4.80;99.90;;;;;;5093524;28;20861;-73
2021/12/25 23:38:52;;;;;;;1.40;1.40;;;4.80;99.90;;;;;;5093753;28;20225;-73
2021/12/25 23:41:22;;;;;;;0.93;0.93;;;4.80;99.90;;;;;;5093547;28;20292;-73
2021/12/25 23:43:53;;;;;;;1.60;1.50;;;4.80;99.90;;;;;;5093713;28;20271;-73
2021/12/25 23:46:21;;;;;;;1.45;1.45;;;4.80;99.90;;;;;;5094150;28;20237;-73
2021/12/25 23:48:48;;;;;;;1.20;1.20;;;4.70;99.90;;;;;;5094010;28;20230;-73
2021/12/25 23:51:15;;;;;;;1.13;1.13;;;4.80;99.90;;;;;;5093584;28;20301;-73